sensor_id;sensor_type;location;lat;lon;timestamp;P1;durP1;ratioP1;P2;durP2;ratioP2
59970;SDS011;45825;45.434;9.116;2022-11-20T00:01:44;43.78;;;27.02;;
59970;SDS011;45825;45.434;9.116;2022-11-20T00:04:10;40.87;;;27.40;;
59970;SDS011;45825;45.434;9.116;2022-11-20T00:06:35;42.67;;;28.02;;
59970;SDS011;45825;45.434;9.116;2022-11-20T00:09:01;42.47;;;26.93;;
59970;SDS011;45825;45.434;9.116;2022-11-20T00:11:27;43.63;;;28.05;;
59970;SDS011;45825;45.434;9.116;2022-11-20T00:13:53;43.20;;;27.60;;
59970;SDS011;45825;45.434;9.116;2022-11-20T00:16:19;41.08;;;26.73;;
59970;SDS011;45825;45.434;9.116;2022-11-20T00:18:47;41.20;;;27.67;;
59970;SDS011;45825;45.434;9.116;2022-11-20T00:21:14;42.53;;;26.52;;
59970;SDS011;45825;45.434;9.116;2022-11-20T00:23:39;36.00;;;24.02;;
59970;SDS011;45825;45.434;9.116;2022-11-20T00:26:08;36.22;;;23.92;;
59970;SDS011;45825;45.434;9.116;2022-11-20T00:28:34;35.40;;;23.45;;
59970;SDS011;45825;45.434;9.116;2022-11-20T00:31:00;33.58;;;23.27;;
59970;SDS011;45825;45.434;9.116;2022-11-20T00:33:25;35.95;;;24.30;;
59970;SDS011;45825;45.434;9.116;2022-11-20T00:35:50;34.77;;;23.90;;
59970;SDS011;45825;45.434;9.116;2022-11-20T00:38:16;38.73;;;25.77;;
59970;SDS011;45825;45.434;9.116;2022-11-20T00:40:41;42.03;;;26.13;;
59970;SDS011;45825;45.434;9.116;2022-11-20T00:43:06;36.47;;;24.00;;
59970;SDS011;45825;45.434;9.116;2022-11-20T00:45:32;34.90;;;23.98;;
59970;SDS011;45825;45.434;9.116;2022-11-20T00:47:58;35.15;;;24.58;;
59970;SDS011;45825;45.434;9.116;2022-11-20T00:50:23;38.77;;;23.50;;
59970;SDS011;45825;45.434;9.116;2022-11-20T00:52:48;36.30;;;24.27;;
59970;SDS011;45825;45.434;9.116;2022-11-20T00:55:13;37.00;;;23.70;;
59970;SDS011;45825;45.434;9.116;2022-11-20T00:57:38;35.58;;;23.35;;
59970;SDS011;45825;45.434;9.116;2022-11-20T01:00:04;42.53;;;27.70;;
59970;SDS011;45825;45.434;9.116;2022-11-20T01:02:31;42.83;;;29.80;;
59970;SDS011;45825;45.434;9.116;2022-11-20T01:04:56;37.73;;;25.53;;
59970;SDS011;45825;45.434;9.116;2022-11-20T01:07:21;33.65;;;22.67;;
59970;SDS011;45825;45.434;9.116;2022-11-20T01:09:46;28.90;;;21.17;;
59970;SDS011;45825;45.434;9.116;2022-11-20T01:12:11;35.10;;;22.70;;
59970;SDS011;45825;45.434;9.116;2022-11-20T01:14:36;29.73;;;20.53;;
59970;SDS011;45825;45.434;9.116;2022-11-20T01:17:02;32.17;;;21.27;;
59970;SDS011;45825;45.434;9.116;2022-11-20T01:19:27;31.37;;;21.57;;
59970;SDS011;45825;45.434;9.116;2022-11-20T01:21:53;35.83;;;23.43;;
59970;SDS011;45825;45.434;9.116;2022-11-20T01:24:19;31.92;;;21.27;;
59970;SDS011;45825;45.434;9.116;2022-11-20T01:26:46;31.27;;;22.00;;
59970;SDS011;45825;45.434;9.116;2022-11-20T01:29:22;31.42;;;21.52;;
59970;SDS011;45825;45.434;9.116;2022-11-20T01:31:47;32.47;;;21.95;;
59970;SDS011;45825;45.434;9.116;2022-11-20T01:34:13;30.00;;;20.83;;
59970;SDS011;45825;45.434;9.116;2022-11-20T01:36:40;30.15;;;20.80;;
59970;SDS011;45825;45.434;9.116;2022-11-20T01:39:07;31.10;;;20.10;;
59970;SDS011;45825;45.434;9.116;2022-11-20T01:41:33;32.70;;;21.35;;
59970;SDS011;45825;45.434;9.116;2022-11-20T01:44:18;29.55;;;20.98;;
59970;SDS011;45825;45.434;9.116;2022-11-20T01:49:23;28.85;;;19.90;;
59970;SDS011;45825;45.434;9.116;2022-11-20T01:51:50;28.08;;;19.23;;
59970;SDS011;45825;45.434;9.116;2022-11-20T01:54:17;31.10;;;19.95;;
59970;SDS011;45825;45.434;9.116;2022-11-20T01:56:44;28.65;;;20.13;;
59970;SDS011;45825;45.434;9.116;2022-11-20T01:59:10;27.42;;;19.50;;
59970;SDS011;45825;45.434;9.116;2022-11-20T02:01:37;25.38;;;19.20;;
59970;SDS011;45825;45.434;9.116;2022-11-20T02:04:04;25.70;;;18.65;;
59970;SDS011;45825;45.434;9.116;2022-11-20T02:06:30;26.15;;;18.60;;
59970;SDS011;45825;45.434;9.116;2022-11-20T02:08:58;26.80;;;18.27;;
59970;SDS011;45825;45.434;9.116;2022-11-20T02:11:23;24.63;;;17.57;;
59970;SDS011;45825;45.434;9.116;2022-11-20T02:13:48;22.85;;;16.02;;
59970;SDS011;45825;45.434;9.116;2022-11-20T02:16:24;22.17;;;15.90;;
59970;SDS011;45825;45.434;9.116;2022-11-20T02:18:50;20.65;;;15.82;;
59970;SDS011;45825;45.434;9.116;2022-11-20T02:26:17;20.00;;;14.68;;
59970;SDS011;45825;45.434;9.116;2022-11-20T02:28:43;18.77;;;14.13;;
59970;SDS011;45825;45.434;9.116;2022-11-20T02:31:09;19.52;;;14.70;;
59970;SDS011;45825;45.434;9.116;2022-11-20T02:33:34;21.30;;;16.07;;
59970;SDS011;45825;45.434;9.116;2022-11-20T02:35:59;21.70;;;15.75;;
59970;SDS011;45825;45.434;9.116;2022-11-20T02:38:24;22.67;;;15.95;;
59970;SDS011;45825;45.434;9.116;2022-11-20T02:40:50;22.33;;;16.13;;
59970;SDS011;45825;45.434;9.116;2022-11-20T02:43:15;25.37;;;16.57;;
59970;SDS011;45825;45.434;9.116;2022-11-20T02:45:40;23.30;;;16.20;;
59970;SDS011;45825;45.434;9.116;2022-11-20T02:48:06;22.33;;;16.43;;
59970;SDS011;45825;45.434;9.116;2022-11-20T02:50:31;22.23;;;16.98;;
59970;SDS011;45825;45.434;9.116;2022-11-20T02:52:56;22.63;;;17.13;;
59970;SDS011;45825;45.434;9.116;2022-11-20T02:55:21;25.33;;;18.10;;
59970;SDS011;45825;45.434;9.116;2022-11-20T02:57:47;24.73;;;17.20;;
59970;SDS011;45825;45.434;9.116;2022-11-20T03:00:12;28.50;;;18.57;;
59970;SDS011;45825;45.434;9.116;2022-11-20T03:02:37;25.20;;;16.90;;
59970;SDS011;45825;45.434;9.116;2022-11-20T03:05:02;25.43;;;18.33;;
59970;SDS011;45825;45.434;9.116;2022-11-20T03:07:28;22.73;;;17.00;;
59970;SDS011;45825;45.434;9.116;2022-11-20T03:09:53;27.98;;;18.33;;
59970;SDS011;45825;45.434;9.116;2022-11-20T03:12:18;27.70;;;18.10;;
59970;SDS011;45825;45.434;9.116;2022-11-20T03:14:43;27.75;;;18.20;;
59970;SDS011;45825;45.434;9.116;2022-11-20T03:17:09;25.30;;;18.53;;
59970;SDS011;45825;45.434;9.116;2022-11-20T03:19:34;25.33;;;18.25;;
59970;SDS011;45825;45.434;9.116;2022-11-20T03:21:59;27.15;;;17.88;;
59970;SDS011;45825;45.434;9.116;2022-11-20T03:24:25;23.42;;;17.63;;
59970;SDS011;45825;45.434;9.116;2022-11-20T03:26:50;26.25;;;17.77;;
59970;SDS011;45825;45.434;9.116;2022-11-20T03:29:15;27.13;;;17.90;;
59970;SDS011;45825;45.434;9.116;2022-11-20T03:31:40;23.23;;;16.80;;
59970;SDS011;45825;45.434;9.116;2022-11-20T03:34:06;24.77;;;17.60;;
59970;SDS011;45825;45.434;9.116;2022-11-20T03:36:32;23.88;;;17.10;;
59970;SDS011;45825;45.434;9.116;2022-11-20T03:38:57;21.35;;;16.85;;
59970;SDS011;45825;45.434;9.116;2022-11-20T03:41:24;21.55;;;15.27;;
59970;SDS011;45825;45.434;9.116;2022-11-20T03:43:53;19.08;;;14.20;;
59970;SDS011;45825;45.434;9.116;2022-11-20T03:46:19;19.52;;;15.27;;
59970;SDS011;45825;45.434;9.116;2022-11-20T03:48:44;21.00;;;15.18;;
59970;SDS011;45825;45.434;9.116;2022-11-20T03:51:10;19.47;;;15.33;;
59970;SDS011;45825;45.434;9.116;2022-11-20T03:53:36;21.27;;;15.05;;
59970;SDS011;45825;45.434;9.116;2022-11-20T03:56:01;21.73;;;15.88;;
59970;SDS011;45825;45.434;9.116;2022-11-20T03:58:26;20.33;;;14.10;;
59970;SDS011;45825;45.434;9.116;2022-11-20T04:00:51;18.65;;;14.40;;
59970;SDS011;45825;45.434;9.116;2022-11-20T04:03:17;19.73;;;14.53;;
59970;SDS011;45825;45.434;9.116;2022-11-20T04:05:42;20.30;;;15.00;;
59970;SDS011;45825;45.434;9.116;2022-11-20T04:08:07;20.30;;;15.25;;
59970;SDS011;45825;45.434;9.116;2022-11-20T04:10:32;21.60;;;15.82;;
59970;SDS011;45825;45.434;9.116;2022-11-20T04:12:57;21.10;;;15.40;;
59970;SDS011;45825;45.434;9.116;2022-11-20T04:15:23;19.73;;;14.47;;
59970;SDS011;45825;45.434;9.116;2022-11-20T04:17:48;21.70;;;15.57;;
59970;SDS011;45825;45.434;9.116;2022-11-20T04:20:13;21.57;;;15.17;;
59970;SDS011;45825;45.434;9.116;2022-11-20T04:22:39;21.35;;;15.27;;
59970;SDS011;45825;45.434;9.116;2022-11-20T04:25:04;20.07;;;15.43;;
59970;SDS011;45825;45.434;9.116;2022-11-20T04:27:30;22.15;;;15.32;;
59970;SDS011;45825;45.434;9.116;2022-11-20T04:29:55;20.67;;;15.07;;
59970;SDS011;45825;45.434;9.116;2022-11-20T04:32:20;21.63;;;14.93;;
59970;SDS011;45825;45.434;9.116;2022-11-20T04:34:46;19.90;;;14.90;;
59970;SDS011;45825;45.434;9.116;2022-11-20T04:37:11;22.67;;;15.73;;
59970;SDS011;45825;45.434;9.116;2022-11-20T04:39:36;22.23;;;15.73;;
59970;SDS011;45825;45.434;9.116;2022-11-20T04:42:01;20.07;;;14.50;;
59970;SDS011;45825;45.434;9.116;2022-11-20T04:44:45;20.33;;;15.25;;
59970;SDS011;45825;45.434;9.116;2022-11-20T04:47:10;22.08;;;15.25;;
59970;SDS011;45825;45.434;9.116;2022-11-20T04:49:35;20.80;;;15.60;;
59970;SDS011;45825;45.434;9.116;2022-11-20T04:52:00;20.80;;;15.40;;
59970;SDS011;45825;45.434;9.116;2022-11-20T04:54:25;21.27;;;15.10;;
59970;SDS011;45825;45.434;9.116;2022-11-20T04:56:51;21.10;;;14.80;;
59970;SDS011;45825;45.434;9.116;2022-11-20T04:59:16;20.97;;;14.93;;
59970;SDS011;45825;45.434;9.116;2022-11-20T05:01:41;20.20;;;14.27;;
59970;SDS011;45825;45.434;9.116;2022-11-20T05:04:06;22.15;;;15.02;;
59970;SDS011;45825;45.434;9.116;2022-11-20T05:06:32;19.23;;;14.67;;
59970;SDS011;45825;45.434;9.116;2022-11-20T05:08:57;24.60;;;15.77;;
59970;SDS011;45825;45.434;9.116;2022-11-20T05:11:22;20.40;;;15.30;;
59970;SDS011;45825;45.434;9.116;2022-11-20T05:13:48;21.63;;;15.38;;
59970;SDS011;45825;45.434;9.116;2022-11-20T05:16:15;19.85;;;14.95;;
59970;SDS011;45825;45.434;9.116;2022-11-20T05:18:40;19.83;;;14.45;;
59970;SDS011;45825;45.434;9.116;2022-11-20T05:21:06;19.40;;;14.48;;
59970;SDS011;45825;45.434;9.116;2022-11-20T05:23:31;19.50;;;14.52;;
59970;SDS011;45825;45.434;9.116;2022-11-20T05:25:57;19.45;;;14.23;;
59970;SDS011;45825;45.434;9.116;2022-11-20T05:28:22;18.50;;;14.13;;
59970;SDS011;45825;45.434;9.116;2022-11-20T05:30:48;22.65;;;14.93;;
59970;SDS011;45825;45.434;9.116;2022-11-20T05:33:13;20.05;;;13.55;;
59970;SDS011;45825;45.434;9.116;2022-11-20T05:35:38;20.03;;;13.33;;
59970;SDS011;45825;45.434;9.116;2022-11-20T05:38:03;20.05;;;14.90;;
59970;SDS011;45825;45.434;9.116;2022-11-20T05:40:29;19.87;;;14.60;;
59970;SDS011;45825;45.434;9.116;2022-11-20T05:42:54;19.77;;;13.53;;
59970;SDS011;45825;45.434;9.116;2022-11-20T05:45:19;20.45;;;14.52;;
59970;SDS011;45825;45.434;9.116;2022-11-20T05:47:44;22.43;;;15.17;;
59970;SDS011;45825;45.434;9.116;2022-11-20T05:50:09;22.13;;;14.82;;
59970;SDS011;45825;45.434;9.116;2022-11-20T05:52:34;22.07;;;14.63;;
59970;SDS011;45825;45.434;9.116;2022-11-20T05:55:00;20.27;;;15.10;;
59970;SDS011;45825;45.434;9.116;2022-11-20T05:57:25;20.80;;;14.60;;
59970;SDS011;45825;45.434;9.116;2022-11-20T05:59:53;20.43;;;14.77;;
59970;SDS011;45825;45.434;9.116;2022-11-20T06:02:18;19.45;;;14.02;;
59970;SDS011;45825;45.434;9.116;2022-11-20T06:04:43;21.83;;;15.75;;
59970;SDS011;45825;45.434;9.116;2022-11-20T06:07:09;22.73;;;15.43;;
59970;SDS011;45825;45.434;9.116;2022-11-20T06:09:34;21.63;;;15.45;;
59970;SDS011;45825;45.434;9.116;2022-11-20T06:11:59;20.83;;;16.13;;
59970;SDS011;45825;45.434;9.116;2022-11-20T06:14:24;23.60;;;16.30;;
59970;SDS011;45825;45.434;9.116;2022-11-20T06:16:50;22.33;;;15.38;;
59970;SDS011;45825;45.434;9.116;2022-11-20T06:19:15;19.67;;;15.37;;
59970;SDS011;45825;45.434;9.116;2022-11-20T06:21:40;24.23;;;16.00;;
59970;SDS011;45825;45.434;9.116;2022-11-20T06:24:05;20.42;;;15.40;;
59970;SDS011;45825;45.434;9.116;2022-11-20T06:26:31;22.80;;;15.77;;
59970;SDS011;45825;45.434;9.116;2022-11-20T06:28:56;20.33;;;14.43;;
59970;SDS011;45825;45.434;9.116;2022-11-20T06:31:22;19.95;;;13.48;;
59970;SDS011;45825;45.434;9.116;2022-11-20T06:33:48;20.58;;;14.27;;
59970;SDS011;45825;45.434;9.116;2022-11-20T06:36:14;18.60;;;13.07;;
59970;SDS011;45825;45.434;9.116;2022-11-20T06:38:40;22.33;;;13.80;;
59970;SDS011;45825;45.434;9.116;2022-11-20T06:41:06;18.65;;;13.77;;
59970;SDS011;45825;45.434;9.116;2022-11-20T06:43:31;19.23;;;13.13;;
59970;SDS011;45825;45.434;9.116;2022-11-20T06:45:57;18.67;;;13.17;;
59970;SDS011;45825;45.434;9.116;2022-11-20T06:48:23;20.73;;;12.45;;
59970;SDS011;45825;45.434;9.116;2022-11-20T06:50:49;18.75;;;12.35;;
59970;SDS011;45825;45.434;9.116;2022-11-20T06:53:14;19.92;;;12.25;;
59970;SDS011;45825;45.434;9.116;2022-11-20T06:55:42;18.43;;;12.10;;
59970;SDS011;45825;45.434;9.116;2022-11-20T06:58:08;17.52;;;12.57;;
59970;SDS011;45825;45.434;9.116;2022-11-20T07:00:33;22.15;;;14.02;;
59970;SDS011;45825;45.434;9.116;2022-11-20T07:03:02;20.23;;;12.73;;
59970;SDS011;45825;45.434;9.116;2022-11-20T07:05:27;18.95;;;11.80;;
59970;SDS011;45825;45.434;9.116;2022-11-20T07:07:55;17.23;;;11.77;;
59970;SDS011;45825;45.434;9.116;2022-11-20T07:10:20;18.98;;;12.35;;
59970;SDS011;45825;45.434;9.116;2022-11-20T07:12:48;16.27;;;12.03;;
59970;SDS011;45825;45.434;9.116;2022-11-20T07:15:13;18.80;;;12.07;;
59970;SDS011;45825;45.434;9.116;2022-11-20T07:17:39;22.17;;;15.10;;
59970;SDS011;45825;45.434;9.116;2022-11-20T07:20:04;21.77;;;16.30;;
59970;SDS011;45825;45.434;9.116;2022-11-20T07:22:29;19.73;;;12.63;;
59970;SDS011;45825;45.434;9.116;2022-11-20T07:24:54;17.10;;;11.63;;
59970;SDS011;45825;45.434;9.116;2022-11-20T07:27:20;16.17;;;10.67;;
59970;SDS011;45825;45.434;9.116;2022-11-20T07:29:45;15.00;;;10.33;;
59970;SDS011;45825;45.434;9.116;2022-11-20T07:32:10;18.40;;;11.20;;
59970;SDS011;45825;45.434;9.116;2022-11-20T07:34:35;15.47;;;11.60;;
59970;SDS011;45825;45.434;9.116;2022-11-20T07:37:00;19.35;;;11.65;;
59970;SDS011;45825;45.434;9.116;2022-11-20T07:39:25;14.60;;;10.93;;
59970;SDS011;45825;45.434;9.116;2022-11-20T07:41:51;16.33;;;10.63;;
59970;SDS011;45825;45.434;9.116;2022-11-20T07:44:16;14.70;;;10.03;;
59970;SDS011;45825;45.434;9.116;2022-11-20T07:46:41;15.80;;;10.03;;
59970;SDS011;45825;45.434;9.116;2022-11-20T07:49:06;15.10;;;9.80;;
59970;SDS011;45825;45.434;9.116;2022-11-20T07:51:31;15.80;;;9.90;;
59970;SDS011;45825;45.434;9.116;2022-11-20T07:53:57;14.05;;;9.13;;
59970;SDS011;45825;45.434;9.116;2022-11-20T07:56:22;14.50;;;9.18;;
59970;SDS011;45825;45.434;9.116;2022-11-20T07:58:47;14.52;;;9.75;;
59970;SDS011;45825;45.434;9.116;2022-11-20T08:01:12;12.07;;;8.87;;
59970;SDS011;45825;45.434;9.116;2022-11-20T08:03:38;13.35;;;8.65;;
59970;SDS011;45825;45.434;9.116;2022-11-20T08:06:03;12.35;;;7.95;;
59970;SDS011;45825;45.434;9.116;2022-11-20T08:08:29;12.30;;;8.02;;
59970;SDS011;45825;45.434;9.116;2022-11-20T08:10:56;11.68;;;7.90;;
59970;SDS011;45825;45.434;9.116;2022-11-20T08:13:41;12.75;;;8.40;;
59970;SDS011;45825;45.434;9.116;2022-11-20T08:16:25;13.68;;;8.55;;
59970;SDS011;45825;45.434;9.116;2022-11-20T08:18:50;11.80;;;7.97;;
59970;SDS011;45825;45.434;9.116;2022-11-20T08:21:15;12.03;;;7.97;;
59970;SDS011;45825;45.434;9.116;2022-11-20T08:23:41;12.53;;;7.73;;
59970;SDS011;45825;45.434;9.116;2022-11-20T08:26:06;11.37;;;8.00;;
59970;SDS011;45825;45.434;9.116;2022-11-20T08:28:31;11.80;;;7.97;;
59970;SDS011;45825;45.434;9.116;2022-11-20T08:36:06;11.80;;;7.35;;
59970;SDS011;45825;45.434;9.116;2022-11-20T08:38:32;12.27;;;7.40;;
59970;SDS011;45825;45.434;9.116;2022-11-20T08:40:58;11.57;;;7.72;;
59970;SDS011;45825;45.434;9.116;2022-11-20T08:43:41;11.30;;;7.45;;
59970;SDS011;45825;45.434;9.116;2022-11-20T08:46:07;12.13;;;7.20;;
59970;SDS011;45825;45.434;9.116;2022-11-20T08:48:32;11.10;;;7.00;;
59970;SDS011;45825;45.434;9.116;2022-11-20T08:50:58;11.90;;;6.60;;
59970;SDS011;45825;45.434;9.116;2022-11-20T08:53:23;10.07;;;5.95;;
59970;SDS011;45825;45.434;9.116;2022-11-20T08:55:48;9.50;;;6.30;;
59970;SDS011;45825;45.434;9.116;2022-11-20T08:58:13;9.30;;;5.90;;
59970;SDS011;45825;45.434;9.116;2022-11-20T09:00:38;8.83;;;5.40;;
59970;SDS011;45825;45.434;9.116;2022-11-20T09:03:03;8.67;;;5.60;;
59970;SDS011;45825;45.434;9.116;2022-11-20T09:05:30;10.52;;;5.68;;
59970;SDS011;45825;45.434;9.116;2022-11-20T09:07:56;10.87;;;5.23;;
59970;SDS011;45825;45.434;9.116;2022-11-20T09:10:21;11.05;;;5.70;;
59970;SDS011;45825;45.434;9.116;2022-11-20T09:12:48;9.33;;;6.13;;
59970;SDS011;45825;45.434;9.116;2022-11-20T09:15:13;9.98;;;5.82;;
59970;SDS011;45825;45.434;9.116;2022-11-20T09:17:39;11.53;;;6.70;;
59970;SDS011;45825;45.434;9.116;2022-11-20T09:20:04;11.30;;;6.32;;
59970;SDS011;45825;45.434;9.116;2022-11-20T09:22:29;11.02;;;6.30;;
59970;SDS011;45825;45.434;9.116;2022-11-20T09:24:55;12.47;;;7.43;;
59970;SDS011;45825;45.434;9.116;2022-11-20T09:27:20;11.70;;;6.40;;
59970;SDS011;45825;45.434;9.116;2022-11-20T09:29:46;10.27;;;6.47;;
59970;SDS011;45825;45.434;9.116;2022-11-20T09:32:11;10.97;;;7.00;;
59970;SDS011;45825;45.434;9.116;2022-11-20T09:34:36;10.37;;;6.80;;
59970;SDS011;45825;45.434;9.116;2022-11-20T09:37:02;9.55;;;6.70;;
59970;SDS011;45825;45.434;9.116;2022-11-20T09:39:27;10.87;;;7.07;;
59970;SDS011;45825;45.434;9.116;2022-11-20T09:54:41;12.02;;;7.57;;
59970;SDS011;45825;45.434;9.116;2022-11-20T09:57:13;11.60;;;8.27;;
59970;SDS011;45825;45.434;9.116;2022-11-20T10:02:27;12.55;;;8.35;;
59970;SDS011;45825;45.434;9.116;2022-11-20T10:05:04;12.23;;;8.38;;
59970;SDS011;45825;45.434;9.116;2022-11-20T10:07:32;12.75;;;7.68;;
59970;SDS011;45825;45.434;9.116;2022-11-20T10:10:01;12.70;;;8.52;;
59970;SDS011;45825;45.434;9.116;2022-11-20T10:19:47;14.15;;;9.40;;
59970;SDS011;45825;45.434;9.116;2022-11-20T10:25:42;18.00;;;11.35;;
59970;SDS011;45825;45.434;9.116;2022-11-20T10:30:21;16.42;;;11.50;;
59970;SDS011;45825;45.434;9.116;2022-11-20T10:32:54;14.80;;;11.07;;
59970;SDS011;45825;45.434;9.116;2022-11-20T10:38:09;15.95;;;11.95;;
59970;SDS011;45825;45.434;9.116;2022-11-20T10:40:41;15.27;;;11.60;;
59970;SDS011;45825;45.434;9.116;2022-11-20T10:43:28;17.77;;;12.07;;
59970;SDS011;45825;45.434;9.116;2022-11-20T10:45:58;17.00;;;11.43;;
59970;SDS011;45825;45.434;9.116;2022-11-20T10:48:24;16.83;;;10.65;;
59970;SDS011;45825;45.434;9.116;2022-11-20T10:51:03;18.83;;;10.48;;
59970;SDS011;45825;45.434;9.116;2022-11-20T10:56:10;13.07;;;9.73;;
59970;SDS011;45825;45.434;9.116;2022-11-20T10:59:04;14.95;;;10.02;;
59970;SDS011;45825;45.434;9.116;2022-11-20T11:01:39;12.63;;;10.02;;
59970;SDS011;45825;45.434;9.116;2022-11-20T11:04:06;12.75;;;9.05;;
59970;SDS011;45825;45.434;9.116;2022-11-20T11:06:39;12.82;;;9.77;;
59970;SDS011;45825;45.434;9.116;2022-11-20T11:09:12;12.60;;;8.48;;
59970;SDS011;45825;45.434;9.116;2022-11-20T11:11:39;11.48;;;8.27;;
59970;SDS011;45825;45.434;9.116;2022-11-20T11:16:30;11.17;;;8.50;;
59970;SDS011;45825;45.434;9.116;2022-11-20T11:21:29;10.60;;;7.97;;
59970;SDS011;45825;45.434;9.116;2022-11-20T11:23:59;12.23;;;8.27;;
59970;SDS011;45825;45.434;9.116;2022-11-20T11:26:24;10.73;;;7.82;;
59970;SDS011;45825;45.434;9.116;2022-11-20T11:28:57;11.63;;;8.75;;
59970;SDS011;45825;45.434;9.116;2022-11-20T11:31:26;12.05;;;8.27;;
59970;SDS011;45825;45.434;9.116;2022-11-20T11:33:52;11.98;;;8.32;;
59970;SDS011;45825;45.434;9.116;2022-11-20T11:36:18;11.40;;;8.17;;
59970;SDS011;45825;45.434;9.116;2022-11-20T11:38:45;12.18;;;8.18;;
59970;SDS011;45825;45.434;9.116;2022-11-20T11:41:12;11.35;;;8.02;;
59970;SDS011;45825;45.434;9.116;2022-11-20T11:43:40;10.18;;;7.82;;
59970;SDS011;45825;45.434;9.116;2022-11-20T11:46:33;10.45;;;7.45;;
59970;SDS011;45825;45.434;9.116;2022-11-20T11:51:32;12.32;;;7.75;;
59970;SDS011;45825;45.434;9.116;2022-11-20T11:53:59;10.23;;;6.90;;
59970;SDS011;45825;45.434;9.116;2022-11-20T11:56:25;10.20;;;7.30;;
59970;SDS011;45825;45.434;9.116;2022-11-20T11:58:51;10.35;;;7.13;;
59970;SDS011;45825;45.434;9.116;2022-11-20T12:01:28;10.95;;;6.65;;
59970;SDS011;45825;45.434;9.116;2022-11-20T12:06:41;9.32;;;6.78;;
59970;SDS011;45825;45.434;9.116;2022-11-20T12:09:11;10.23;;;7.03;;
59970;SDS011;45825;45.434;9.116;2022-11-20T12:11:43;10.18;;;6.88;;
59970;SDS011;45825;45.434;9.116;2022-11-20T12:16:48;10.27;;;6.85;;
59970;SDS011;45825;45.434;9.116;2022-11-20T12:19:14;9.05;;;6.80;;
59970;SDS011;45825;45.434;9.116;2022-11-20T12:24:38;8.60;;;5.95;;
59970;SDS011;45825;45.434;9.116;2022-11-20T12:34:55;8.05;;;5.72;;
59970;SDS011;45825;45.434;9.116;2022-11-20T12:39:54;9.43;;;5.60;;
59970;SDS011;45825;45.434;9.116;2022-11-20T12:42:23;10.32;;;5.53;;
59970;SDS011;45825;45.434;9.116;2022-11-20T12:45:12;8.75;;;5.70;;
59970;SDS011;45825;45.434;9.116;2022-11-20T12:50:35;12.27;;;5.85;;
59970;SDS011;45825;45.434;9.116;2022-11-20T12:53:09;8.38;;;5.43;;
59970;SDS011;45825;45.434;9.116;2022-11-20T13:00:51;8.40;;;5.43;;
59970;SDS011;45825;45.434;9.116;2022-11-20T13:03:37;8.73;;;5.25;;
59970;SDS011;45825;45.434;9.116;2022-11-20T13:06:10;10.88;;;6.18;;
59970;SDS011;45825;45.434;9.116;2022-11-20T13:08:38;7.60;;;5.03;;
59970;SDS011;45825;45.434;9.116;2022-11-20T13:13:40;7.90;;;5.50;;
59970;SDS011;45825;45.434;9.116;2022-11-20T13:16:10;8.85;;;5.47;;
59970;SDS011;45825;45.434;9.116;2022-11-20T13:18:38;10.30;;;5.10;;
59970;SDS011;45825;45.434;9.116;2022-11-20T13:21:18;7.97;;;4.05;;
59970;SDS011;45825;45.434;9.116;2022-11-20T13:23:43;7.57;;;4.20;;
59970;SDS011;45825;45.434;9.116;2022-11-20T13:26:16;9.10;;;3.70;;
59970;SDS011;45825;45.434;9.116;2022-11-20T13:28:41;6.65;;;3.40;;
59970;SDS011;45825;45.434;9.116;2022-11-20T13:31:23;5.93;;;3.03;;
59970;SDS011;45825;45.434;9.116;2022-11-20T13:33:49;5.82;;;2.92;;
59970;SDS011;45825;45.434;9.116;2022-11-20T13:36:23;6.60;;;2.80;;
59970;SDS011;45825;45.434;9.116;2022-11-20T13:38:50;4.07;;;2.40;;
59970;SDS011;45825;45.434;9.116;2022-11-20T13:43:53;4.18;;;2.40;;
59970;SDS011;45825;45.434;9.116;2022-11-20T13:46:19;6.57;;;2.40;;
59970;SDS011;45825;45.434;9.116;2022-11-20T13:48:49;4.73;;;2.23;;
59970;SDS011;45825;45.434;9.116;2022-11-20T13:56:11;5.23;;;2.73;;
59970;SDS011;45825;45.434;9.116;2022-11-20T13:58:52;6.07;;;2.65;;
59970;SDS011;45825;45.434;9.116;2022-11-20T14:01:24;5.18;;;2.75;;
59970;SDS011;45825;45.434;9.116;2022-11-20T14:03:51;5.53;;;2.55;;
59970;SDS011;45825;45.434;9.116;2022-11-20T14:06:33;6.50;;;2.72;;
59970;SDS011;45825;45.434;9.116;2022-11-20T14:08:59;15.18;;;3.60;;
59970;SDS011;45825;45.434;9.116;2022-11-20T14:11:26;6.55;;;2.63;;
59970;SDS011;45825;45.434;9.116;2022-11-20T14:13:52;8.23;;;2.70;;
59970;SDS011;45825;45.434;9.116;2022-11-20T14:16:19;8.50;;;2.95;;
59970;SDS011;45825;45.434;9.116;2022-11-20T14:18:45;7.30;;;3.10;;
59970;SDS011;45825;45.434;9.116;2022-11-20T14:21:10;6.23;;;3.37;;
59970;SDS011;45825;45.434;9.116;2022-11-20T14:23:35;6.63;;;2.90;;
59970;SDS011;45825;45.434;9.116;2022-11-20T14:26:00;7.37;;;3.50;;
59970;SDS011;45825;45.434;9.116;2022-11-20T14:28:27;8.10;;;3.30;;
59970;SDS011;45825;45.434;9.116;2022-11-20T14:30:52;6.53;;;3.30;;
59970;SDS011;45825;45.434;9.116;2022-11-20T14:33:18;6.40;;;3.30;;
59970;SDS011;45825;45.434;9.116;2022-11-20T14:35:48;7.65;;;3.55;;
59970;SDS011;45825;45.434;9.116;2022-11-20T14:38:15;6.60;;;3.10;;
59970;SDS011;45825;45.434;9.116;2022-11-20T14:40:41;6.72;;;2.85;;
59970;SDS011;45825;45.434;9.116;2022-11-20T14:45:50;7.80;;;3.58;;
59970;SDS011;45825;45.434;9.116;2022-11-20T14:48:17;8.68;;;3.40;;
59970;SDS011;45825;45.434;9.116;2022-11-20T14:50:42;7.67;;;3.20;;
59970;SDS011;45825;45.434;9.116;2022-11-20T14:53:08;10.87;;;3.83;;
59970;SDS011;45825;45.434;9.116;2022-11-20T14:55:34;7.70;;;3.37;;
59970;SDS011;45825;45.434;9.116;2022-11-20T14:58:21;8.70;;;3.70;;
59970;SDS011;45825;45.434;9.116;2022-11-20T15:00:53;8.80;;;4.00;;
59970;SDS011;45825;45.434;9.116;2022-11-20T15:03:18;8.85;;;4.72;;
59970;SDS011;45825;45.434;9.116;2022-11-20T15:05:45;9.57;;;4.23;;
59970;SDS011;45825;45.434;9.116;2022-11-20T15:08:10;9.73;;;4.00;;
59970;SDS011;45825;45.434;9.116;2022-11-20T15:10:36;11.60;;;4.28;;
59970;SDS011;45825;45.434;9.116;2022-11-20T15:13:03;8.57;;;3.97;;
59970;SDS011;45825;45.434;9.116;2022-11-20T15:15:30;9.75;;;4.40;;
59970;SDS011;45825;45.434;9.116;2022-11-20T15:17:57;8.07;;;3.92;;
59970;SDS011;45825;45.434;9.116;2022-11-20T15:20:24;8.25;;;4.13;;
59970;SDS011;45825;45.434;9.116;2022-11-20T15:22:50;8.77;;;4.22;;
59970;SDS011;45825;45.434;9.116;2022-11-20T15:25:16;9.63;;;4.23;;
59970;SDS011;45825;45.434;9.116;2022-11-20T15:27:42;9.18;;;4.55;;
59970;SDS011;45825;45.434;9.116;2022-11-20T15:30:15;12.38;;;5.20;;
59970;SDS011;45825;45.434;9.116;2022-11-20T15:32:41;8.38;;;4.93;;
59970;SDS011;45825;45.434;9.116;2022-11-20T15:35:07;9.73;;;5.18;;
59970;SDS011;45825;45.434;9.116;2022-11-20T15:37:32;8.02;;;5.07;;
59970;SDS011;45825;45.434;9.116;2022-11-20T15:39:57;13.20;;;5.40;;
59970;SDS011;45825;45.434;9.116;2022-11-20T15:42:23;9.10;;;5.13;;
59970;SDS011;45825;45.434;9.116;2022-11-20T15:44:48;9.83;;;5.60;;
59970;SDS011;45825;45.434;9.116;2022-11-20T15:47:13;10.47;;;5.67;;
59970;SDS011;45825;45.434;9.116;2022-11-20T15:49:38;9.33;;;5.50;;
59970;SDS011;45825;45.434;9.116;2022-11-20T15:52:03;16.50;;;6.13;;
59970;SDS011;45825;45.434;9.116;2022-11-20T15:54:28;14.47;;;5.30;;
59970;SDS011;45825;45.434;9.116;2022-11-20T15:56:54;11.18;;;6.13;;
59970;SDS011;45825;45.434;9.116;2022-11-20T15:59:19;11.00;;;5.85;;
59970;SDS011;45825;45.434;9.116;2022-11-20T16:01:44;11.68;;;5.68;;
59970;SDS011;45825;45.434;9.116;2022-11-20T16:04:11;10.97;;;6.40;;